Time;durP1;ratioP1;P1;durP2;ratioP2;P2;SDS_P1;SDS_P2;PMS_P1;PMS_P2;Temp;Humidity;BMP_temperature;BMP_pressure;BME280_temperature;BME280_humidity;BME280_pressure;Samples;Min_cycle;Max_cycle;Signal;HPM_P1;HPM_P2
2022/04/19 00:00:06;;;;;;;2.70;0.82;;;;;;;10.81;62.14;100666.88;4976652;28;20094;-95
2022/04/19 00:02:31;;;;;;;4.78;1.08;;;;;;;10.76;62.93;100663.69;4976506;28;20082;-95
2022/04/19 00:04:59;;;;;;;3.55;0.77;;;;;;;10.84;63.11;100671.91;4976747;28;20030;-94
2022/04/19 00:07:27;;;;;;;4.80;1.13;;;;;;;10.86;63.01;100683.16;4976571;28;20019;-96
2022/04/19 00:09:53;;;;;;;6.45;1.25;;;;;;;10.68;63.17;100657.19;4977064;28;20041;-95
2022/04/19 00:12:19;;;;;;;3.55;0.70;;;;;;;10.68;63.17;100661.56;4976769;28;20027;-94
2022/04/19 00:14:45;;;;;;;8.02;1.23;;;;;;;10.59;63.01;100651.69;4976486;28;20027;-96
2022/04/19 00:17:11;;;;;;;2.95;1.00;;;;;;;10.56;63.48;100657.09;4976287;28;20031;-96
2022/04/19 00:19:36;;;;;;;4.88;1.10;;;;;;;10.51;63.49;100650.38;4976713;28;20026;-96
2022/04/19 00:22:02;;;;;;;6.30;1.30;;;;;;;10.48;63.88;100653.19;4976070;28;20050;-93
2022/04/19 00:24:28;;;;;;;4.88;1.10;;;;;;;10.43;64.07;100647.41;4976181;28;20027;-96
2022/04/19 00:26:55;;;;;;;2.63;0.80;;;;;;;10.49;64.42;100654.03;4975680;28;20384;-92
2022/04/19 00:29:20;;;;;;;5.20;1.55;;;;;;;10.46;64.96;100649.81;4976344;28;20113;-96
2022/04/19 00:31:46;;;;;;;2.75;1.08;;;;;;;10.57;64.65;100664.06;4976285;28;20121;-96
2022/04/19 00:34:11;;;;;;;6.30;1.75;;;;;;;10.45;64.82;100648.13;4976358;28;20027;-94
2022/04/19 00:36:37;;;;;;;4.75;1.45;;;;;;;10.42;64.77;100644.84;4976687;28;20030;-94
2022/04/19 00:39:04;;;;;;;5.07;1.10;;;;;;;10.37;64.92;100646.91;4977335;28;20477;-94
2022/04/19 00:41:29;;;;;;;4.03;1.10;;;;;;;10.35;64.67;100648.81;4977645;28;20036;-95
2022/04/19 00:43:55;;;;;;;5.07;1.20;;;;;;;10.25;64.87;100638.88;4976328;28;20393;-95
2022/04/19 00:46:21;;;;;;;3.13;1.20;;;;;;;10.25;64.31;100644.13;4975758;28;20030;-96
2022/04/19 00:48:46;;;;;;;4.80;2.35;;;;;;;10.11;64.26;100646.75;4976048;28;20023;-96
2022/04/19 00:51:13;;;;;;;7.55;1.70;;;;;;;10.27;64.19;100660.59;4975864;28;20477;-96
2022/04/19 00:53:40;;;;;;;3.45;1.52;;;;;;;10.13;63.75;100652.75;4975834;28;20396;-96
2022/04/19 00:56:07;;;;;;;6.68;1.10;;;;;;;9.95;64.02;100636.34;4975787;28;20031;-96
2022/04/19 00:58:33;;;;;;;2.38;1.08;;;;;;;10.01;64.59;100650.88;4975821;28;20121;-96
2022/04/19 01:01:00;;;;;;;8.90;1.55;;;;;;;9.90;63.92;100631.41;4975552;28;20504;-95
2022/04/19 01:03:25;;;;;;;5.65;1.40;;;;;;;9.83;64.31;100627.47;4975488;28;20019;-96
2022/04/19 01:05:53;;;;;;;9.35;1.60;;;;;;;9.88;64.22;100643.78;4974905;28;20030;-95
2022/04/19 01:08:20;;;;;;;5.45;1.75;;;;;;;9.76;64.23;100626.16;4974781;28;20034;-95
2022/04/19 01:10:46;;;;;;;6.93;1.70;;;;;;;9.85;64.20;100651.84;4975157;28;20026;-96
2022/04/19 01:13:19;;;;;;;8.88;2.67;;;;;;;9.63;64.67;100614.72;4975460;28;20034;-96
2022/04/19 01:15:49;;;;;;;4.72;1.73;;;;;;;9.64;65.35;100627.75;4975130;28;20023;-96
2022/04/19 01:18:20;;;;;;;5.63;1.40;;;;;;;9.31;64.96;100614.88;4975316;28;20034;-95
2022/04/19 01:20:48;;;;;;;6.50;1.73;;;;;;;9.27;65.36;100603.75;4975218;28;20027;-95
2022/04/19 01:23:14;;;;;;;9.85;2.53;;;;;;;9.21;65.57;100608.50;4975057;28;20030;-96
2022/04/19 01:25:40;;;;;;;8.02;2.08;;;;;;;9.25;66.09;100620.50;4975214;28;20038;-96
2022/04/19 01:28:06;;;;;;;3.38;1.52;;;;;;;9.20;65.82;100617.28;4974805;28;20481;-94
2022/04/19 01:30:33;;;;;;;7.05;1.80;;;;;;;9.25;66.03;100630.97;4975022;28;20422;-95
2022/04/19 01:32:59;;;;;;;6.68;2.20;;;;;;;9.58;65.04;100611.53;4974961;28;20019;-96
2022/04/19 01:35:25;;;;;;;5.53;1.77;;;;;;;9.80;64.34;100648.63;4975063;28;20027;-96
2022/04/19 01:37:51;;;;;;;4.88;1.95;;;;;;;9.76;63.92;100636.66;4974818;28;20038;-95
2022/04/19 01:40:17;;;;;;;6.97;2.45;;;;;;;9.70;64.16;100632.63;4974589;28;20027;-96
2022/04/19 01:42:52;;;;;;;5.78;1.95;;;;;;;9.56;64.12;100613.41;4974626;28;20551;-94
2022/04/19 01:45:23;;;;;;;8.02;1.95;;;;;;;9.56;64.42;100610.78;4974895;28;20015;-95
2022/04/19 01:47:50;;;;;;;6.43;2.58;;;;;;;9.54;64.57;100618.75;4974859;28;20492;-96
2022/04/19 01:50:17;;;;;;;9.45;2.90;;;;;;;9.71;63.93;100643.94;4974475;28;20082;-96
2022/04/19 01:52:44;;;;;;;6.05;1.95;;;;;;;9.36;64.61;100623.34;4974681;28;20022;-96
2022/04/19 01:55:14;;;;;;;4.80;2.15;;;;;;;9.09;65.82;100637.09;4974563;28;20304;-96
2022/04/19 01:57:42;;;;;;;7.40;1.92;;;;;;;8.94;66.10;100617.03;4973974;28;20099;-95
2022/04/19 02:00:08;;;;;;;7.35;2.22;;;;;;;8.95;66.15;100631.81;4973925;28;20030;-96
2022/04/19 02:02:34;;;;;;;7.63;1.92;;;;;;;8.78;66.62;100595.28;4974394;28;20023;-96
2022/04/19 02:04:59;;;;;;;5.82;2.58;;;;;;;9.02;66.55;100612.19;4974516;28;20050;-96
2022/04/19 02:07:25;;;;;;;8.20;2.47;;;;;;;9.10;66.22;100615.22;4974381;28;20103;-95
2022/04/19 02:09:50;;;;;;;6.88;2.38;;;;;;;9.32;65.76;100616.56;4974218;28;20030;-96
2022/04/19 02:12:16;;;;;;;6.35;2.75;;;;;;;9.29;65.68;100595.78;4974007;28;20019;-96
2022/04/19 02:14:41;;;;;;;8.80;2.78;;;;;;;9.31;66.43;100593.94;4974355;28;20027;-95
2022/04/19 02:17:10;;;;;;;8.85;2.75;;;;;;;9.54;65.84;100616.16;4974064;28;20038;-96
2022/04/19 02:19:38;;;;;;;5.72;2.10;;;;;;;9.51;65.84;100603.22;4974192;28;20023;-96
2022/04/19 02:22:09;;;;;;;6.05;2.42;;;;;;;9.45;65.42;100607.03;4973026;28;20477;-95
2022/04/19 02:24:35;;;;;;;9.75;2.55;;;;;;;9.53;65.30;100622.31;4973968;28;20453;-95
2022/04/19 02:27:01;;;;;;;5.97;2.25;;;;;;;9.48;64.87;100622.59;4973648;28;20031;-95
2022/04/19 02:29:28;;;;;;;6.47;2.40;;;;;;;9.29;64.31;100604.50;4974038;28;20400;-95
2022/04/19 02:31:53;;;;;;;7.88;2.53;;;;;;;9.33;64.56;100613.84;4973859;28;20022;-96
2022/04/19 02:34:19;;;;;;;5.57;2.22;;;;;;;9.21;64.77;100605.88;4973851;28;20106;-95
2022/04/19 02:36:45;;;;;;;4.55;2.00;;;;;;;9.29;64.32;100619.38;4973744;28;20023;-95
2022/04/19 02:39:11;;;;;;;10.80;2.40;;;;;;;9.22;64.69;100611.03;4973904;28;20556;-96
2022/04/19 02:41:37;;;;;;;5.78;2.25;;;;;;;8.97;65.91;100616.03;4973885;28;20026;-96
2022/04/19 02:44:04;;;;;;;4.88;1.88;;;;;;;9.14;65.81;100628.97;4974179;28;20030;-96
2022/04/19 02:46:30;;;;;;;7.75;2.63;;;;;;;9.23;65.12;100631.06;4974073;28;20058;-95
2022/04/19 02:48:58;;;;;;;6.55;2.65;;;;;;;9.25;64.59;100626.56;4974263;28;20019;-95
2022/04/19 02:51:24;;;;;;;4.45;2.50;;;;;;;9.15;64.83;100619.34;4973636;28;20027;-96
2022/04/19 02:53:49;;;;;;;7.57;2.40;;;;;;;9.21;64.79;100639.94;4973892;28;20545;-95
2022/04/19 02:56:16;;;;;;;7.90;2.65;;;;;;;9.03;64.37;100616.50;4975502;28;20031;-94
2022/04/19 02:58:44;;;;;;;9.18;2.53;;;;;;;9.16;64.76;100636.75;4981183;28;20093;-96
2022/04/19 03:01:10;;;;;;;4.43;2.47;;;;;;;8.93;65.60;100615.38;4980787;28;20027;-95
2022/04/19 03:03:35;;;;;;;6.95;2.25;;;;;;;9.04;64.86;100626.03;4974180;28;20085;-95
2022/04/19 03:06:01;;;;;;;6.18;2.65;;;;;;;9.04;65.00;100619.97;4973844;28;20026;-96
2022/04/19 03:08:27;;;;;;;6.45;2.58;;;;;;;9.07;65.62;100617.19;4973957;28;20386;-96
2022/04/19 03:10:53;;;;;;;5.30;2.33;;;;;;;9.13;65.58;100628.13;4973605;28;20023;-95
2022/04/19 03:13:18;;;;;;;6.65;2.70;;;;;;;9.19;65.08;100628.72;4973714;28;20539;-95
2022/04/19 03:15:44;;;;;;;11.00;3.22;;;;;;;9.13;65.79;100628.13;4973366;28;20026;-96
2022/04/19 03:18:09;;;;;;;9.32;3.20;;;;;;;9.07;66.16;100618.00;4973318;28;20031;-95
2022/04/19 03:20:35;;;;;;;5.30;2.35;;;;;;;9.34;65.88;100651.41;4972552;28;20027;-95
2022/04/19 03:28:31;;;;;;;6.07;2.58;;;;;;;9.19;65.12;100639.19;4974745;28;20089;-96
2022/04/19 03:30:57;;;;;;;7.10;2.70;;;;;;;9.13;65.37;100630.75;4972463;28;20023;-96
2022/04/19 03:33:23;;;;;;;9.88;3.10;;;;;;;9.06;65.18;100632.06;4976680;28;20030;-96
2022/04/19 03:35:48;;;;;;;9.57;3.15;;;;;;;9.13;65.18;100645.63;4977441;28;20023;-95
2022/04/19 03:38:14;;;;;;;9.52;2.83;;;;;;;9.17;65.46;100648.94;4977136;28;20033;-95
2022/04/19 03:40:39;;;;;;;6.75;2.90;;;;;;;9.13;65.09;100637.78;4977357;28;20034;-95
2022/04/19 03:43:06;;;;;;;8.25;2.92;;;;;;;9.17;65.08;100641.06;4977027;28;20497;-95
2022/04/19 03:45:32;;;;;;;14.70;3.05;;;;;;;9.10;65.85;100628.31;4976822;28;20023;-95
2022/04/19 03:48:00;;;;;;;4.93;2.40;;;;;;;9.20;65.42;100635.63;4977149;28;20034;-96
2022/04/19 03:50:25;;;;;;;10.40;3.17;;;;;;;9.07;65.25;100628.50;4976798;28;20029;-95
2022/04/19 03:52:52;;;;;;;5.18;3.10;;;;;;;9.07;65.82;100628.50;4976808;28;20027;-94
2022/04/19 03:55:17;;;;;;;7.70;2.92;;;;;;;9.07;64.93;100631.09;4976814;28;20489;-96
2022/04/19 03:57:42;;;;;;;7.47;3.58;;;;;;;9.21;65.91;100632.09;4976769;28;20109;-95
2022/04/19 04:00:08;;;;;;;6.50;3.63;;;;;;;9.12;65.95;100615.97;4976623;28;20138;-95
2022/04/19 04:02:34;;;;;;;6.53;3.25;;;;;;;9.17;65.06;100625.34;4976795;28;20027;-93
2022/04/19 04:04:59;;;;;;;8.23;3.65;;;;;;;9.12;65.45;100618.59;4974195;28;20073;-94
2022/04/19 04:07:27;;;;;;;10.30;4.07;;;;;;;9.03;64.58;100620.91;4973818;28;20528;-95
2022/04/19 04:09:52;;;;;;;7.50;3.20;;;;;;;9.05;64.59;100632.13;4976560;28;20027;-96
2022/04/19 04:12:18;;;;;;;10.65;3.25;;;;;;;9.12;64.62;100644.78;4975795;28;20393;-96
2022/04/19 04:14:43;;;;;;;5.93;2.63;;;;;;;8.92;64.36;100618.91;4976166;28;20051;-95
2022/04/19 04:17:10;;;;;;;4.57;2.53;;;;;;;8.86;64.28;100635.78;4976745;28;20089;-94
2022/04/19 04:19:35;;;;;;;7.15;2.67;;;;;;;8.86;64.36;100653.28;4976768;28;20029;-96
2022/04/19 04:22:00;;;;;;;7.05;2.83;;;;;;;8.73;64.00;100640.91;4976609;28;20109;-95
2022/04/19 04:24:26;;;;;;;8.00;2.70;;;;;;;8.62;64.35;100632.81;4976210;28;20034;-94
2022/04/19 04:26:52;;;;;;;8.57;3.20;;;;;;;8.69;64.03;100649.88;4976774;28;20034;-96
2022/04/19 04:29:17;;;;;;;5.75;2.72;;;;;;;8.51;63.55;100625.56;4976210;28;20218;-95
2022/04/19 04:31:43;;;;;;;7.57;2.55;;;;;;;8.50;64.34;100638.72;4976231;28;20025;-94
2022/04/19 04:34:08;;;;;;;11.88;2.80;;;;;;;8.49;65.56;100642.25;4976294;28;20045;-95
2022/04/19 04:36:34;;;;;;;10.10;3.33;;;;;;;8.65;65.42;100658.81;4976443;28;20027;-96
2022/04/19 04:39:03;;;;;;;7.03;2.75;;;;;;;8.50;68.00;100660.50;4976247;28;20388;-95
2022/04/19 04:41:29;;;;;;;6.35;2.90;;;;;;;8.58;67.74;100652.22;4976542;28;20125;-95
2022/04/19 04:43:54;;;;;;;7.47;3.42;;;;;;;8.67;68.44;100640.41;4975824;28;20492;-96
2022/04/19 04:51:47;;;;;;;7.40;2.95;;;;;;;8.78;65.23;100652.88;4977482;28;20042;-96
2022/04/19 04:54:13;;;;;;;5.85;3.10;;;;;;;8.81;64.66;100655.34;4975872;28;20007;-93
2022/04/19 04:56:38;;;;;;;5.70;2.05;;;;;;;8.69;64.48;100652.47;4975961;28;20034;-94
2022/04/19 04:59:04;;;;;;;5.28;2.50;;;;;;;8.66;63.94;100655.25;4975440;28;20114;-95
2022/04/19 05:01:29;;;;;;;7.50;2.88;;;;;;;8.57;64.29;100642.69;4975465;28;20027;-93
2022/04/19 05:03:55;;;;;;;8.88;2.85;;;;;;;8.56;64.26;100645.41;4975881;28;20026;-96
2022/04/19 05:06:20;;;;;;;6.93;2.30;;;;;;;8.69;64.54;100670.81;4975878;28;20496;-95
2022/04/19 05:08:45;;;;;;;4.57;2.20;;;;;;;8.68;64.70;100658.63;4975982;28;20038;-95
2022/04/19 05:11:11;;;;;;;4.35;1.75;;;;;;;8.66;64.46;100670.97;4975794;28;20039;-94
2022/04/19 05:13:36;;;;;;;6.25;2.88;;;;;;;8.78;64.92;100676.44;4975320;28;20023;-95
2022/04/19 05:16:02;;;;;;;7.57;2.83;;;;;;;8.57;65.20;100668.88;4975398;28;20073;-95
2022/04/19 05:18:30;;;;;;;3.92;2.33;;;;;;;8.71;64.62;100670.72;4975143;28;20094;-95
2022/04/19 05:20:55;;;;;;;4.53;2.92;;;;;;;8.93;64.29;100699.16;4975356;28;20038;-96
2022/04/19 05:23:21;;;;;;;7.57;2.35;;;;;;;8.93;63.70;100680.84;4975365;28;20456;-96
2022/04/19 05:25:47;;;;;;;5.70;2.05;;;;;;;8.93;63.23;100679.03;4975347;28;20489;-95
2022/04/19 05:28:13;;;;;;;4.93;2.42;;;;;;;8.96;63.39;100682.41;4975482;28;20397;-95
2022/04/19 05:30:39;;;;;;;8.70;2.35;;;;;;;8.90;63.92;100667.91;4975964;28;20496;-96
2022/04/19 05:33:05;;;;;;;4.65;2.47;;;;;;;9.16;63.93;100695.22;4976117;28;20034;-96
2022/04/19 05:35:31;;;;;;;8.00;2.42;;;;;;;9.12;64.13;100681.47;4976122;28;20029;-96
2022/04/19 05:37:58;;;;;;;7.60;3.13;;;;;;;9.24;63.64;100677.31;4974781;28;20548;-95
2022/04/19 05:40:23;;;;;;;12.57;3.38;;;;;;;9.34;63.76;100677.63;4974235;28;20015;-96
2022/04/19 05:42:49;;;;;;;7.32;3.55;;;;;;;9.51;63.85;100685.31;4974988;28;20027;-96
2022/04/19 05:45:14;;;;;;;6.53;3.08;;;;;;;9.79;63.86;100698.56;4974837;28;20027;-96
2022/04/19 05:47:40;;;;;;;8.50;4.32;;;;;;;9.85;63.58;100682.44;4974854;28;20031;-96
2022/04/19 05:50:06;;;;;;;8.45;3.47;;;;;;;9.93;63.57;100673.19;4974703;28;20612;-96
2022/04/19 05:52:31;;;;;;;5.63;2.90;;;;;;;9.96;63.23;100652.97;4974495;28;20019;-96
2022/04/19 05:54:57;;;;;;;5.03;2.78;;;;;;;10.15;63.04;100664.00;4974785;28;20512;-96
2022/04/19 05:57:22;;;;;;;5.60;2.30;;;;;;;10.28;63.09;100654.41;4974814;28;20027;-96
2022/04/19 05:59:47;;;;;;;7.60;2.92;;;;;;;10.43;63.27;100662.31;4974710;28;20023;-95
2022/04/19 06:04:58;;;;;;;4.68;2.58;;;;;;;10.91;62.63;100675.84;4976378;28;20084;-95
2022/04/19 06:07:25;;;;;;;7.15;3.10;;;;;;;10.88;62.44;100649.75;4974615;28;20033;-95
2022/04/19 06:09:51;;;;;;;4.82;2.72;;;;;;;11.13;62.37;100663.94;4974564;28;20057;-96
2022/04/19 06:12:17;;;;;;;8.23;2.90;;;;;;;11.18;62.76;100660.06;4974620;28;20042;-96
2022/04/19 06:14:43;;;;;;;7.95;3.17;;;;;;;11.36;60.67;100686.91;4974440;28;20022;-95
2022/04/19 06:17:13;;;;;;;4.47;2.40;;;;;;;11.39;61.63;100673.53;4974347;28;20015;-95
2022/04/19 06:19:39;;;;;;;13.02;3.45;;;;;;;11.40;60.83;100672.59;4977873;28;20031;-96
2022/04/19 06:22:05;;;;;;;8.65;3.17;;;;;;;11.15;60.51;100656.78;4986065;28;20037;-95
2022/04/19 06:24:30;;;;;;;8.30;3.45;;;;;;;11.27;60.55;100650.72;4982653;28;20042;-95
2022/04/19 06:26:56;;;;;;;10.43;3.40;;;;;;;11.47;60.10;100650.22;4974989;28;20030;-95
2022/04/19 06:29:21;;;;;;;4.85;3.03;;;;;;;11.66;59.99;100655.06;4974630;28;20046;-96
2022/04/19 06:31:47;;;;;;;6.90;3.58;;;;;;;11.28;60.11;100674.25;4974268;28;20037;-96
2022/04/19 06:34:13;;;;;;;7.32;4.20;;;;;;;11.70;59.87;100660.94;4974306;28;20035;-94
2022/04/19 06:36:39;;;;;;;8.50;4.05;;;;;;;11.98;59.14;100682.75;4974005;28;20034;-95
2022/04/19 06:39:04;;;;;;;7.22;3.63;;;;;;;12.46;58.34;100682.88;4974079;28;20555;-94
2022/04/19 06:41:30;;;;;;;8.60;3.58;;;;;;;12.57;57.75;100692.66;4974062;28;20033;-95
2022/04/19 06:43:59;;;;;;;8.45;3.97;;;;;;;12.49;58.05;100685.28;4973876;28;20042;-96
2022/04/19 06:46:25;;;;;;;8.90;4.57;;;;;;;13.43;56.76;100695.13;4974246;28;20025;-96
2022/04/19 06:48:53;;;;;;;8.43;4.03;;;;;;;13.76;55.04;100685.56;4974303;28;20041;-96
2022/04/19 06:51:20;;;;;;;8.27;3.75;;;;;;;13.95;54.58;100673.63;4974561;28;20027;-96
2022/04/19 06:53:45;;;;;;;8.80;3.83;;;;;;;13.86;52.79;100688.34;4976320;28;20023;-96
2022/04/19 06:56:11;;;;;;;8.18;3.60;;;;;;;14.20;53.11;100685.75;4974130;28;20050;-96
2022/04/19 06:58:42;;;;;;;11.45;3.83;;;;;;;14.57;52.48;100688.94;4974181;28;20042;-96
2022/04/19 07:01:10;;;;;;;6.32;3.47;;;;;;;14.78;51.80;100691.66;4974050;28;20393;-96
2022/04/19 07:03:37;;;;;;;6.60;2.95;;;;;;;14.36;52.03;100691.50;4974090;28;20038;-96
2022/04/19 07:06:03;;;;;;;7.00;3.75;;;;;;;14.66;51.55;100680.28;4973208;28;20481;-95
2022/04/19 07:08:29;;;;;;;7.65;3.88;;;;;;;14.89;50.88;100688.16;4976560;28;20086;-96
2022/04/19 07:10:56;;;;;;;5.78;3.40;;;;;;;14.99;49.78;100673.22;4977980;28;20077;-96
2022/04/19 07:13:25;;;;;;;4.80;3.20;;;;;;;16.38;48.99;100694.09;4977930;28;20188;-96
2022/04/19 07:15:53;;;;;;;6.88;3.50;;;;;;;16.27;48.09;100702.16;4977675;28;20440;-96
2022/04/19 07:18:23;;;;;;;4.45;2.67;;;;;;;17.29;46.58;100691.31;4977715;28;20077;-95
2022/04/19 07:26:40;;;;;;;4.10;2.50;;;;;;;18.60;44.19;100701.13;4982865;28;20081;-96
2022/04/19 07:29:24;;;;;;;3.28;1.65;;;;;;;18.81;44.57;100687.56;4970396;28;20121;-96
2022/04/19 07:31:52;;;;;;;4.82;1.17;;;;;;;19.74;42.39;100673.03;4980650;28;20035;-96
2022/04/19 07:34:18;;;;;;;3.10;0.65;;;;;;;20.37;40.84;100677.97;4980593;28;20050;-96
2022/04/19 07:36:45;;;;;;;4.20;0.93;;;;;;;20.39;41.26;100669.81;4979988;28;20465;-96
2022/04/19 07:39:17;;;;;;;3.88;0.90;;;;;;;20.54;41.05;100678.06;4979811;28;20019;-96
2022/04/19 07:41:51;;;;;;;;;;;;;;;19.95;42.51;100692.13;4983635;28;20473;-96
2022/04/19 07:44:19;;;;;;;3.03;0.90;;;;;;;20.46;40.19;100670.84;4980886;28;19914;-95
2022/04/19 07:46:57;;;;;;;7.78;1.10;;;;;;;21.55;38.71;100674.34;4980217;28;20027;-96
2022/04/19 07:49:23;;;;;;;8.48;1.05;;;;;;;21.80;37.66;100672.44;4983350;28;20374;-96
2022/04/19 07:51:54;;;;;;;6.00;0.80;;;;;;;22.36;37.07;100694.66;4979896;28;20085;-96
2022/04/19 07:54:20;;;;;;;4.47;1.75;;;;;;;23.69;35.29;100682.81;4982832;28;20038;-96
2022/04/19 07:56:56;;;;;;;4.72;1.30;;;;;;;25.70;31.46;100710.91;4984963;28;20023;-96
2022/04/19 07:59:35;;;;;;;8.27;0.98;;;;;;;27.66;29.14;100680.63;4986381;28;20050;-96
2022/04/19 08:02:34;;;;;;;3.08;1.20;;;;;;;25.59;32.39;100699.84;4986276;28;20129;-96
2022/04/19 08:08:53;;;;;;;9.05;1.45;;;;;;;21.89;37.28;100687.44;4983480;28;20035;-96
2022/04/19 09:36:56;;;;;;;3.03;0.65;;;;;;;28.29;28.24;100693.53;4964114;29;20054;-96
2022/04/19 09:40:14;;;;;;;;;;;;;;;;;;;;;
2022/04/19 09:43:21;;;;;;;;;;;;;;;;;;;;;
2022/04/19 09:46:47;;;;;;;2.08;0.63;;;;;;;35.37;20.10;100683.91;4986417;28;20117;-96
2022/04/19 09:50:21;;;;;;;;;;;;;;;;;;;;;
2022/04/19 11:54:59;;;;;;;3.22;1.60;;;;;;;30.71;23.04;100656.00;4955962;28;20051;-96
2022/04/19 11:57:35;;;;;;;5.03;1.45;;;;;;;30.16;23.55;100653.41;4973975;28;20035;-96
2022/04/19 12:22:21;;;;;;;5.93;1.70;;;;;;;26.58;27.77;100650.25;4961567;26;20089;-96
2022/04/19 12:24:58;;;;;;;8.35;2.03;;;;;;;25.79;30.32;100659.66;4964969;28;20038;-96
2022/04/19 12:27:32;;;;;;;4.07;1.30;;;;;;;24.88;29.58;100634.38;4960721;28;20055;-96
2022/04/19 12:30:11;;;;;;;11.93;2.80;;;;;;;24.33;30.25;100671.53;4961279;28;20069;-96
2022/04/19 12:32:57;;;;;;;3.05;1.67;;;;;;;25.07;30.92;100657.03;4958937;29;20038;-96
2022/04/19 12:35:55;;;;;;;7.45;2.10;;;;;;;25.32;30.76;100633.28;4964171;28;20099;-96
2022/04/19 12:38:31;;;;;;;3.42;1.75;;;;;;;24.64;31.21;100634.72;4959220;29;20043;-96
2022/04/19 12:41:00;;;;;;;2.40;1.65;;;;;;;24.49;30.63;100626.72;4958637;28;20122;-96
2022/04/19 12:43:44;;;;;;;4.70;1.50;;;;;;;28.22;27.54;100656.81;4961804;29;20030;-96
2022/04/19 12:46:20;;;;;;;4.05;1.42;;;;;;;26.51;29.45;100629.53;4958288;29;20078;-96
2022/04/19 12:48:56;;;;;;;3.20;1.55;;;;;;;25.63;29.95;100628.53;4958580;28;20104;-96
2022/04/19 12:51:24;;;;;;;6.47;1.98;;;;;;;24.03;30.97;100637.72;4961058;28;20053;-96
2022/04/19 12:54:08;;;;;;;6.68;1.80;;;;;;;26.35;28.78;100626.41;4959263;29;20122;-96
2022/04/19 12:56:39;;;;;;;6.25;2.03;;;;;;;28.42;25.21;100627.84;4960455;28;20114;-96
2022/04/19 12:59:05;;;;;;;12.00;2.35;;;;;;;28.03;27.10;100628.88;4960923;29;20082;-96
2022/04/19 13:01:33;;;;;;;9.23;1.65;;;;;;;26.45;27.58;100651.91;4960026;28;20027;-96
2022/04/19 13:04:05;;;;;;;4.40;1.77;;;;;;;26.66;28.84;100652.81;4961393;28;20122;-96
2022/04/19 13:12:17;;;;;;;5.30;1.95;;;;;;;27.58;27.23;100637.69;4964614;28;20043;-96
2022/04/19 13:14:49;;;;;;;7.03;2.58;;;;;;;26.15;29.50;100632.56;4962982;28;20027;-96
2022/04/19 13:17:15;;;;;;;6.82;2.10;;;;;;;24.99;30.70;100641.06;4959615;29;20126;-96
2022/04/19 13:19:42;;;;;;;5.00;1.55;;;;;;;24.61;30.70;100632.44;4959552;29;20035;-96
2022/04/19 13:22:14;;;;;;;4.90;1.60;;;;;;;25.04;30.92;100630.56;4961214;28;20027;-96
2022/04/19 13:24:41;;;;;;;4.57;2.05;;;;;;;24.33;31.70;100631.28;4959005;29;20023;-96
2022/04/19 13:27:08;;;;;;;5.22;1.55;;;;;;;24.48;31.47;100609.75;4959564;29;20035;-96
2022/04/19 13:29:34;;;;;;;4.82;1.50;;;;;;;24.52;30.50;100619.13;4960369;29;20057;-96
2022/04/19 13:32:05;;;;;;;6.40;1.75;;;;;;;24.45;31.78;100612.00;4960497;28;20549;-94
2022/04/19 13:34:31;;;;;;;7.05;1.92;;;;;;;23.76;32.34;100614.03;4960736;28;20386;-96
2022/04/19 13:37:00;;;;;;;8.02;1.92;;;;;;;23.92;31.86;100609.53;4963941;28;20031;-96
2022/04/19 13:39:27;;;;;;;8.20;2.60;;;;;;;22.69;34.12;100624.03;4965222;28;20031;-96
2022/04/19 13:41:52;;;;;;;5.28;2.05;;;;;;;22.10;35.58;100608.50;4960266;28;20059;-96
2022/04/19 13:44:22;;;;;;;7.05;2.60;;;;;;;21.50;35.69;100620.56;4960670;28;20058;-96
2022/04/19 13:46:48;;;;;;;6.03;2.05;;;;;;;22.05;36.42;100611.69;4958275;28;20057;-96
2022/04/19 13:49:18;;;;;;;5.63;2.40;;;;;;;21.71;36.02;100609.31;4956795;28;20494;-96
2022/04/19 13:51:47;;;;;;;10.68;2.10;;;;;;;21.08;37.08;100633.09;4959311;28;20031;-96
2022/04/19 13:54:13;;;;;;;8.50;2.33;;;;;;;21.43;35.91;100619.56;4958227;28;20394;-96
2022/04/19 13:56:40;;;;;;;5.63;2.05;;;;;;;20.64;37.76;100608.59;4958763;28;20027;-96
2022/04/19 13:59:07;;;;;;;10.52;3.03;;;;;;;20.29;38.57;100629.13;4959972;28;20031;-96
2022/04/19 14:01:33;;;;;;;6.75;2.42;;;;;;;19.98;38.15;100617.22;4958615;28;20023;-96
2022/04/19 14:03:59;;;;;;;6.40;2.22;;;;;;;19.91;39.74;100610.00;4960369;28;20466;-96
2022/04/19 14:06:29;;;;;;;8.63;2.63;;;;;;;19.17;40.94;100637.00;4959260;28;20033;-96
2022/04/19 14:08:58;;;;;;;6.80;2.60;;;;;;;19.13;41.42;100614.31;4958293;29;20031;-96
2022/04/19 14:11:24;;;;;;;9.13;2.10;;;;;;;18.68;43.15;100627.72;4957629;28;20031;-96
2022/04/19 14:13:53;;;;;;;11.02;2.60;;;;;;;17.72;43.91;100641.38;4959505;28;20011;-96
2022/04/19 14:16:19;;;;;;;9.35;2.63;;;;;;;17.72;47.13;100625.44;4960028;28;20035;-96
2022/04/19 14:18:44;;;;;;;6.20;2.38;;;;;;;17.91;49.50;100621.88;4975195;28;20042;-95
2022/04/19 14:21:10;;;;;;;5.60;2.42;;;;;;;17.95;51.32;100620.59;4975564;28;20031;-94
2022/04/19 14:23:35;;;;;;;6.65;2.80;;;;;;;18.32;52.79;100644.44;4967189;28;20133;-96
2022/04/19 14:26:01;;;;;;;6.13;2.42;;;;;;;18.47;52.08;100622.69;4962003;29;20066;-96
2022/04/19 14:33:56;;;;;;;7.55;2.55;;;;;;;18.51;51.12;100632.88;4956927;29;20171;-96
2022/04/19 14:36:25;;;;;;;8.77;2.88;;;;;;;18.49;49.71;100629.53;4955212;29;20489;-96
2022/04/19 14:38:51;;;;;;;8.02;2.60;;;;;;;18.44;48.35;100631.78;4955365;29;20036;-96
2022/04/19 14:41:19;;;;;;;6.70;3.03;;;;;;;18.28;48.39;100605.88;4955652;28;20031;-96
2022/04/19 14:43:46;;;;;;;7.07;3.33;;;;;;;18.45;48.20;100622.03;4955069;29;20110;-96
2022/04/19 14:46:11;;;;;;;6.50;3.05;;;;;;;18.61;47.75;100611.53;4955555;29;20394;-95
2022/04/19 14:48:37;;;;;;;10.05;3.17;;;;;;;18.58;46.37;100631.28;4955573;29;20024;-95
2022/04/19 14:53:47;;;;;;;8.82;3.90;;;;;;;18.50;47.91;100622.38;4956945;29;20035;-96
2022/04/19 14:56:13;;;;;;;6.43;3.05;;;;;;;18.80;47.17;100616.75;4955022;29;20023;-96
2022/04/19 14:58:38;;;;;;;9.07;3.63;;;;;;;19.43;46.44;100622.84;4954766;28;20031;-96
2022/04/19 15:01:07;;;;;;;6.90;3.78;;;;;;;19.01;44.78;100632.38;4954800;28;20023;-96
2022/04/19 15:03:32;;;;;;;13.93;3.47;;;;;;;19.81;45.05;100615.47;4955884;29;20177;-96
2022/04/19 15:05:58;;;;;;;8.38;4.03;;;;;;;19.99;43.30;100624.19;4956236;28;20128;-96
2022/04/19 15:08:23;;;;;;;7.43;3.65;;;;;;;20.03;42.64;100614.06;4957320;28;20032;-95
2022/04/19 15:10:48;;;;;;;7.53;3.65;;;;;;;20.45;42.09;100602.50;4959235;28;20023;-96
2022/04/19 15:13:14;;;;;;;11.00;4.13;;;;;;;20.70;42.88;100622.09;4958531;28;20027;-96
2022/04/19 15:15:40;;;;;;;6.22;3.80;;;;;;;20.94;41.01;100607.91;4957819;29;20024;-96
2022/04/19 15:18:09;;;;;;;13.13;3.60;;;;;;;21.16;40.68;100609.06;4956746;28;20039;-96
2022/04/19 15:20:37;;;;;;;8.68;3.47;;;;;;;20.70;41.10;100629.25;4973791;28;20028;-96
2022/04/19 15:23:03;;;;;;;6.95;3.22;;;;;;;20.96;41.52;100632.59;4956776;29;20033;-96
2022/04/19 15:25:28;;;;;;;7.97;3.20;;;;;;;20.74;40.53;100625.25;4956561;29;20124;-96
2022/04/19 15:27:54;;;;;;;7.30;3.30;;;;;;;20.97;40.05;100630.75;4957193;28;20291;-96
2022/04/19 15:30:26;;;;;;;8.23;2.95;;;;;;;20.38;40.22;100609.50;4961569;28;20478;-96
2022/04/19 15:32:53;;;;;;;7.18;2.20;;;;;;;20.75;38.69;100632.25;4959369;29;20039;-95
2022/04/19 15:35:20;;;;;;;5.53;2.22;;;;;;;20.15;40.34;100596.75;4959971;29;20034;-96
2022/04/19 15:37:46;;;;;;;10.45;2.88;;;;;;;19.76;41.69;100607.94;4965363;29;20031;-96
2022/04/19 15:40:14;;;;;;;6.55;3.45;;;;;;;20.00;40.50;100598.38;4963009;28;20512;-96
2022/04/19 15:42:39;;;;;;;5.38;3.15;;;;;;;20.34;40.80;100603.66;4963028;29;20121;-96
2022/04/19 15:45:07;;;;;;;7.82;2.75;;;;;;;20.24;41.59;100594.13;4959680;28;20065;-96
2022/04/19 15:47:32;;;;;;;8.90;2.92;;;;;;;20.45;41.93;100612.34;4958593;28;20023;-96
2022/04/19 15:49:58;;;;;;;9.48;3.60;;;;;;;20.23;41.41;100589.78;4959310;28;20027;-96
2022/04/19 15:52:23;;;;;;;8.07;3.33;;;;;;;20.28;41.23;100598.97;4960541;29;20059;-96
2022/04/19 15:54:49;;;;;;;8.50;3.10;;;;;;;20.09;41.65;100581.41;4960964;28;20426;-96
2022/04/19 15:57:14;;;;;;;9.57;4.32;;;;;;;19.47;42.38;100581.63;4965199;29;20020;-96
2022/04/19 15:59:40;;;;;;;10.52;4.45;;;;;;;19.53;43.54;100594.31;4962789;28;20110;-95
2022/04/19 16:02:06;;;;;;;11.77;3.63;;;;;;;19.84;42.94;100579.66;4960457;28;20031;-96